sensor_id;sensor_type;location;lat;lon;timestamp;pressure;altitude;pressure_sealevel;temperature;humidity
38939;BME280;24211;49.980;19.776;2023-03-31T00:01:31;98537.88;;;10.77;100.00
38939;BME280;24211;49.980;19.776;2023-03-31T00:04:03;98547.47;;;10.73;100.00
38939;BME280;24211;49.980;19.776;2023-03-31T00:06:35;98549.88;;;10.74;100.00
38939;BME280;24211;49.980;19.776;2023-03-31T00:09:12;98549.66;;;10.76;100.00
38939;BME280;24211;49.980;19.776;2023-03-31T00:11:39;98557.06;;;10.74;100.00
38939;BME280;24211;49.980;19.776;2023-03-31T00:14:07;98546.66;;;10.72;100.00
38939;BME280;24211;49.980;19.776;2023-03-31T00:16:36;98553.09;;;10.76;100.00
38939;BME280;24211;49.980;19.776;2023-03-31T00:19:05;98555.56;;;10.78;100.00
38939;BME280;24211;49.980;19.776;2023-03-31T00:21:35;98560.41;;;10.81;100.00
38939;BME280;24211;49.980;19.776;2023-03-31T00:24:05;98556.38;;;10.78;100.00
38939;BME280;24211;49.980;19.776;2023-03-31T00:26:34;98558.22;;;10.78;100.00
38939;BME280;24211;49.980;19.776;2023-03-31T00:29:04;98562.50;;;10.79;100.00
38939;BME280;24211;49.980;19.776;2023-03-31T00:31:33;98564.94;;;10.80;100.00
38939;BME280;24211;49.980;19.776;2023-03-31T00:34:01;98553.44;;;10.80;100.00
38939;BME280;24211;49.980;19.776;2023-03-31T00:36:28;98548.09;;;10.80;100.00
38939;BME280;24211;49.980;19.776;2023-03-31T00:39:00;98546.47;;;10.79;100.00
38939;BME280;24211;49.980;19.776;2023-03-31T00:41:34;98549.72;;;10.81;100.00
38939;BME280;24211;49.980;19.776;2023-03-31T00:44:19;98551.81;;;10.79;100.00
38939;BME280;24211;49.980;19.776;2023-03-31T00:47:15;98554.75;;;10.77;100.00
38939;BME280;24211;49.980;19.776;2023-03-31T00:49:48;98553.94;;;10.77;100.00
38939;BME280;24211;49.980;19.776;2023-03-31T00:52:32;98546.97;;;10.76;100.00
38939;BME280;24211;49.980;19.776;2023-03-31T00:55:09;98548.28;;;10.73;100.00
38939;BME280;24211;49.980;19.776;2023-03-31T00:57:41;98549.88;;;10.74;100.00
38939;BME280;24211;49.980;19.776;2023-03-31T01:00:12;98559.75;;;10.74;100.00
38939;BME280;24211;49.980;19.776;2023-03-31T01:03:00;98553.94;;;10.77;100.00
38939;BME280;24211;49.980;19.776;2023-03-31T01:08:04;98554.91;;;10.71;100.00
38939;BME280;24211;49.980;19.776;2023-03-31T01:10:40;98553.84;;;10.72;100.00
38939;BME280;24211;49.980;19.776;2023-03-31T01:13:12;98549.88;;;10.74;100.00
38939;BME280;24211;49.980;19.776;2023-03-31T01:15:42;98552.31;;;10.76;100.00
38939;BME280;24211;49.980;19.776;2023-03-31T01:18:11;98553.94;;;10.77;100.00
38939;BME280;24211;49.980;19.776;2023-03-31T01:37:21;98540.00;;;10.75;100.00
38939;BME280;24211;49.980;19.776;2023-03-31T01:42:42;98541.84;;;10.74;100.00
38939;BME280;24211;49.980;19.776;2023-03-31T01:48:40;98532.72;;;10.70;100.00
38939;BME280;24211;49.980;19.776;2023-03-31T01:51:23;98547.94;;;10.70;100.00
38939;BME280;24211;49.980;19.776;2023-03-31T01:57:07;98551.09;;;10.67;100.00
38939;BME280;24211;49.980;19.776;2023-03-31T01:59:49;98555.06;;;10.64;100.00
38939;BME280;24211;49.980;19.776;2023-03-31T02:02:31;98557.97;;;10.63;100.00
38939;BME280;24211;49.980;19.776;2023-03-31T02:05:14;98555.88;;;10.65;100.00
38939;BME280;24211;49.980;19.776;2023-03-31T02:07:56;98555.88;;;10.65;100.00
38939;BME280;24211;49.980;19.776;2023-03-31T02:10:28;98554.75;;;10.61;100.00
38939;BME280;24211;49.980;19.776;2023-03-31T02:13:00;98556.59;;;10.60;100.00
38939;BME280;24211;49.980;19.776;2023-03-31T02:15:39;98546.19;;;10.59;100.00
38939;BME280;24211;49.980;19.776;2023-03-31T02:18:13;98546.75;;;10.61;100.00
38939;BME280;24211;49.980;19.776;2023-03-31T02:20:48;98541.88;;;10.58;100.00
38939;BME280;24211;49.980;19.776;2023-03-31T02:23:22;98534.69;;;10.58;100.00
38939;BME280;24211;49.980;19.776;2023-03-31T02:26:06;98548.75;;;10.54;100.00
38939;BME280;24211;49.980;19.776;2023-03-31T02:28:37;98547.63;;;10.49;100.00
38939;BME280;24211;49.980;19.776;2023-03-31T02:31:12;98550.88;;;10.52;100.00
38939;BME280;24211;49.980;19.776;2023-03-31T02:33:47;98551.44;;;10.54;100.00
38939;BME280;24211;49.980;19.776;2023-03-31T02:36:15;98549.31;;;10.56;100.00
38939;BME280;24211;49.980;19.776;2023-03-31T02:38:52;98550.38;;;10.55;100.00
38939;BME280;24211;49.980;19.776;2023-03-31T02:41:22;98551.44;;;10.54;100.00
38939;BME280;24211;49.980;19.776;2023-03-31T02:43:49;98546.31;;;10.52;100.00
38939;BME280;24211;49.980;19.776;2023-03-31T02:46:16;98551.44;;;10.54;100.00
38939;BME280;24211;49.980;19.776;2023-03-31T02:49:05;98547.13;;;10.52;100.00
38939;BME280;24211;49.980;19.776;2023-03-31T02:51:46;98540.97;;;10.52;100.00
38939;BME280;24211;49.980;19.776;2023-03-31T03:03:40;98552.16;;;10.49;100.00
38939;BME280;24211;49.980;19.776;2023-03-31T03:09:56;98542.44;;;10.43;100.00
38939;BME280;24211;49.980;19.776;2023-03-31T03:12:41;98542.78;;;10.46;100.00
38939;BME280;24211;49.980;19.776;2023-03-31T03:15:28;98550.19;;;10.44;100.00
38939;BME280;24211;49.980;19.776;2023-03-31T03:17:58;98546.97;;;10.42;100.00
38939;BME280;24211;49.980;19.776;2023-03-31T03:20:26;98548.59;;;10.43;100.00
38939;BME280;24211;49.980;19.776;2023-03-31T03:22:54;98551.28;;;10.43;100.00
38939;BME280;24211;49.980;19.776;2023-03-31T03:25:21;98549.06;;;10.40;100.00
38939;BME280;24211;49.980;19.776;2023-03-31T03:27:50;98549.06;;;10.40;100.00
38939;BME280;24211;49.980;19.776;2023-03-31T03:30:19;98546.88;;;10.37;100.00
38939;BME280;24211;49.980;19.776;2023-03-31T03:32:46;98545.75;;;10.33;100.00
38939;BME280;24211;49.980;19.776;2023-03-31T03:35:13;98542.25;;;10.33;100.00
38939;BME280;24211;49.980;19.776;2023-03-31T03:37:42;98544.03;;;10.27;100.00
38939;BME280;24211;49.980;19.776;2023-03-31T03:40:10;98541.63;;;10.26;100.00
38939;BME280;24211;49.980;19.776;2023-03-31T03:42:37;98530.59;;;10.22;100.00
38939;BME280;24211;49.980;19.776;2023-03-31T03:45:05;98535.94;;;10.22;100.00
38939;BME280;24211;49.980;19.776;2023-03-31T03:47:33;98523.09;;;10.19;100.00
38939;BME280;24211;49.980;19.776;2023-03-31T03:50:03;98532.69;;;10.20;100.00
38939;BME280;24211;49.980;19.776;2023-03-31T03:52:31;98528.66;;;10.18;100.00
38939;BME280;24211;49.980;19.776;2023-03-31T03:54:58;98537.72;;;10.17;100.00
38939;BME280;24211;49.980;19.776;2023-03-31T03:57:29;98525.97;;;10.18;100.00
38939;BME280;24211;49.980;19.776;2023-03-31T03:59:56;98521.72;;;10.17;100.00
38939;BME280;24211;49.980;19.776;2023-03-31T04:02:24;98513.44;;;10.18;100.00
38939;BME280;24211;49.980;19.776;2023-03-31T04:04:54;98512.41;;;10.19;100.00
38939;BME280;24211;49.980;19.776;2023-03-31T04:07:21;98519.59;;;10.19;100.00
38939;BME280;24211;49.980;19.776;2023-03-31T04:09:48;98508.09;;;10.18;100.00
38939;BME280;24211;49.980;19.776;2023-03-31T04:12:15;98506.00;;;10.20;100.00
38939;BME280;24211;49.980;19.776;2023-03-31T04:14:42;98507.63;;;10.21;100.00
38939;BME280;24211;49.980;19.776;2023-03-31T04:17:10;98514.56;;;10.22;100.00
38939;BME280;24211;49.980;19.776;2023-03-31T04:19:41;98502.84;;;10.23;100.00
38939;BME280;24211;49.980;19.776;2023-03-31T04:22:09;98501.81;;;10.24;100.00
38939;BME280;24211;49.980;19.776;2023-03-31T04:24:37;98488.47;;;10.24;100.00
38939;BME280;24211;49.980;19.776;2023-03-31T04:27:05;98482.06;;;10.25;100.00
38939;BME280;24211;49.980;19.776;2023-03-31T04:29:36;98481.50;;;10.23;100.00
38939;BME280;24211;49.980;19.776;2023-03-31T04:32:04;98477.19;;;10.22;100.00
38939;BME280;24211;49.980;19.776;2023-03-31T04:34:31;98482.53;;;10.22;100.00
38939;BME280;24211;49.980;19.776;2023-03-31T04:37:02;98484.63;;;10.20;100.00
38939;BME280;24211;49.980;19.776;2023-03-31T04:39:30;98486.50;;;10.20;100.00
38939;BME280;24211;49.980;19.776;2023-03-31T04:41:59;98485.13;;;10.17;100.00
38939;BME280;24211;49.980;19.776;2023-03-31T04:44:27;98479.00;;;10.17;100.00
38939;BME280;24211;49.980;19.776;2023-03-31T04:46:55;98481.88;;;10.15;100.00
38939;BME280;24211;49.980;19.776;2023-03-31T04:49:22;98492.56;;;10.15;100.00
38939;BME280;24211;49.980;19.776;2023-03-31T04:51:50;98490.97;;;10.14;100.00
38939;BME280;24211;49.980;19.776;2023-03-31T04:54:17;98476.53;;;10.15;100.00
38939;BME280;24211;49.980;19.776;2023-03-31T04:56:45;98476.53;;;10.15;100.00
38939;BME280;24211;49.980;19.776;2023-03-31T04:59:12;98486.41;;;10.15;100.00
38939;BME280;24211;49.980;19.776;2023-03-31T05:01:40;98484.00;;;10.13;100.00
38939;BME280;24211;49.980;19.776;2023-03-31T05:04:13;98481.88;;;10.15;100.00
38939;BME280;24211;49.980;19.776;2023-03-31T05:06:40;98472.84;;;10.16;100.00
38939;BME280;24211;49.980;19.776;2023-03-31T05:09:07;98473.41;;;10.18;100.00
38939;BME280;24211;49.980;19.776;2023-03-31T05:11:36;98472.59;;;10.18;100.00
38939;BME280;24211;49.980;19.776;2023-03-31T05:14:04;98478.72;;;10.18;100.00
38939;BME280;24211;49.980;19.776;2023-03-31T05:16:31;98476.06;;;10.18;100.00
38939;BME280;24211;49.980;19.776;2023-03-31T05:18:59;98476.06;;;10.18;100.00
38939;BME280;24211;49.980;19.776;2023-03-31T05:21:26;98471.28;;;10.20;100.00
38939;BME280;24211;49.980;19.776;2023-03-31T05:23:56;98468.63;;;10.20;100.00
38939;BME280;24211;49.980;19.776;2023-03-31T05:26:25;98471.84;;;10.22;100.00
38939;BME280;24211;49.980;19.776;2023-03-31T05:28:53;98468.69;;;10.25;100.00
38939;BME280;24211;49.980;19.776;2023-03-31T05:31:21;98463.91;;;10.27;100.00
38939;BME280;24211;49.980;19.776;2023-03-31T05:33:48;98468.78;;;10.30;100.00
38939;BME280;24211;49.980;19.776;2023-03-31T05:36:17;98468.31;;;10.33;100.00
38939;BME280;24211;49.980;19.776;2023-03-31T05:38:44;98462.16;;;10.33;100.00
38939;BME280;24211;49.980;19.776;2023-03-31T05:41:12;98469.91;;;10.34;100.00
38939;BME280;24211;49.980;19.776;2023-03-31T05:43:39;98464.09;;;10.37;100.00
38939;BME280;24211;49.980;19.776;2023-03-31T05:46:06;98462.78;;;10.40;100.00
38939;BME280;24211;49.980;19.776;2023-03-31T05:48:35;98454.56;;;10.41;100.00
38939;BME280;24211;49.980;19.776;2023-03-31T05:51:04;98450.31;;;10.45;100.00
38939;BME280;24211;49.980;19.776;2023-03-31T05:53:32;98446.09;;;10.49;100.00
38939;BME280;24211;49.980;19.776;2023-03-31T05:56:03;98450.16;;;10.52;100.00
38939;BME280;24211;49.980;19.776;2023-03-31T05:58:34;98447.25;;;10.54;100.00
38939;BME280;24211;49.980;19.776;2023-03-31T06:01:09;98453.72;;;10.58;100.00
38939;BME280;24211;49.980;19.776;2023-03-31T06:03:40;98452.66;;;10.59;100.00
38939;BME280;24211;49.980;19.776;2023-03-31T06:06:09;98450.56;;;10.61;100.00
38939;BME280;24211;49.980;19.776;2023-03-31T06:08:42;98444.28;;;10.72;100.00
38939;BME280;24211;49.980;19.776;2023-03-31T06:11:14;98441.75;;;10.82;100.00
38939;BME280;24211;49.980;19.776;2023-03-31T06:13:42;98444.88;;;10.95;100.00
38939;BME280;24211;49.980;19.776;2023-03-31T06:16:11;98439.34;;;11.02;100.00
38939;BME280;24211;49.980;19.776;2023-03-31T06:18:40;98446.94;;;11.10;100.00
38939;BME280;24211;49.980;19.776;2023-03-31T06:21:14;98436.38;;;11.20;100.00
38939;BME280;24211;49.980;19.776;2023-03-31T06:23:44;98434.91;;;11.34;100.00
38939;BME280;24211;49.980;19.776;2023-03-31T06:26:16;98440.13;;;11.46;100.00
38939;BME280;24211;49.980;19.776;2023-03-31T06:28:45;98437.41;;;11.67;100.00
38939;BME280;24211;49.980;19.776;2023-03-31T06:31:19;98437.06;;;11.86;100.00
38939;BME280;24211;49.980;19.776;2023-03-31T06:33:47;98432.72;;;12.11;100.00
38939;BME280;24211;49.980;19.776;2023-03-31T06:36:18;98431.00;;;12.27;100.00
38939;BME280;24211;49.980;19.776;2023-03-31T06:38:47;98435.41;;;12.43;100.00
38939;BME280;24211;49.980;19.776;2023-03-31T06:41:16;98428.56;;;12.62;100.00
38939;BME280;24211;49.980;19.776;2023-03-31T06:43:44;98431.31;;;12.77;100.00
38939;BME280;24211;49.980;19.776;2023-03-31T06:46:13;98428.69;;;12.92;100.00
38939;BME280;24211;49.980;19.776;2023-03-31T06:48:40;98431.69;;;13.01;100.00
38939;BME280;24211;49.980;19.776;2023-03-31T06:51:09;98431.78;;;13.11;100.00
38939;BME280;24211;49.980;19.776;2023-03-31T06:53:36;98429.97;;;13.27;100.00
38939;BME280;24211;49.980;19.776;2023-03-31T06:56:04;98431.59;;;13.38;100.00
38939;BME280;24211;49.980;19.776;2023-03-31T06:58:33;98434.84;;;13.50;100.00
38939;BME280;24211;49.980;19.776;2023-03-31T07:01:03;98423.91;;;13.76;100.00
38939;BME280;24211;49.980;19.776;2023-03-31T07:03:32;98431.19;;;14.01;100.00
38939;BME280;24211;49.980;19.776;2023-03-31T07:06:01;98424.22;;;14.30;100.00
38939;BME280;24211;49.980;19.776;2023-03-31T07:08:29;98423.66;;;14.54;100.00
38939;BME280;24211;49.980;19.776;2023-03-31T07:10:59;98412.31;;;14.72;100.00
38939;BME280;24211;49.980;19.776;2023-03-31T07:13:28;98408.53;;;14.78;100.00
38939;BME280;24211;49.980;19.776;2023-03-31T07:15:56;98414.44;;;14.85;100.00
38939;BME280;24211;49.980;19.776;2023-03-31T07:18:23;98417.09;;;15.00;100.00
38939;BME280;24211;49.980;19.776;2023-03-31T07:20:52;98415.16;;;15.16;100.00
38939;BME280;24211;49.980;19.776;2023-03-31T07:23:20;98409.47;;;15.22;100.00
38939;BME280;24211;49.980;19.776;2023-03-31T07:25:47;98404.72;;;14.94;100.00
38939;BME280;24211;49.980;19.776;2023-03-31T07:28:16;98402.84;;;14.89;100.00
38939;BME280;24211;49.980;19.776;2023-03-31T07:30:43;98400.69;;;14.91;100.00
38939;BME280;24211;49.980;19.776;2023-03-31T07:33:11;98395.59;;;14.90;100.00
38939;BME280;24211;49.980;19.776;2023-03-31T07:35:40;98402.88;;;14.84;100.00
38939;BME280;24211;49.980;19.776;2023-03-31T07:38:09;98401.03;;;14.70;100.00
38939;BME280;24211;49.980;19.776;2023-03-31T07:40:38;98401.06;;;14.60;100.00
38939;BME280;24211;49.980;19.776;2023-03-31T07:43:06;98398.09;;;14.61;100.00
38939;BME280;24211;49.980;19.776;2023-03-31T07:45:34;98403.75;;;14.55;100.00
38939;BME280;24211;49.980;19.776;2023-03-31T07:48:02;98400.56;;;14.37;100.00
38939;BME280;24211;49.980;19.776;2023-03-31T07:50:29;98394.91;;;14.59;100.00
38939;BME280;24211;49.980;19.776;2023-03-31T07:52:58;98385.34;;;14.97;100.00
38939;BME280;24211;49.980;19.776;2023-03-31T07:55:26;98382.53;;;15.22;100.00
38939;BME280;24211;49.980;19.776;2023-03-31T07:57:53;98385.75;;;15.24;100.00
38939;BME280;24211;49.980;19.776;2023-03-31T08:00:21;98379.31;;;15.20;100.00
38939;BME280;24211;49.980;19.776;2023-03-31T08:02:49;98381.03;;;15.06;100.00
38939;BME280;24211;49.980;19.776;2023-03-31T08:05:19;98374.66;;;14.77;100.00
38939;BME280;24211;49.980;19.776;2023-03-31T08:07:49;98377.59;;;14.80;100.00
38939;BME280;24211;49.980;19.776;2023-03-31T08:10:24;98375.97;;;14.84;100.00
38939;BME280;24211;49.980;19.776;2023-03-31T08:12:53;98370.28;;;14.96;100.00
38939;BME280;24211;49.980;19.776;2023-03-31T08:15:22;98365.91;;;15.10;100.00
38939;BME280;24211;49.980;19.776;2023-03-31T08:17:49;98361.47;;;15.34;100.00
38939;BME280;24211;49.980;19.776;2023-03-31T08:20:17;98356.16;;;15.68;100.00
38939;BME280;24211;49.980;19.776;2023-03-31T08:22:44;98343.09;;;15.85;100.00
38939;BME280;24211;49.980;19.776;2023-03-31T08:25:12;98345.34;;;16.07;100.00
38939;BME280;24211;49.980;19.776;2023-03-31T08:27:39;98335.03;;;16.14;100.00
38939;BME280;24211;49.980;19.776;2023-03-31T08:30:10;98338.69;;;16.28;100.00
38939;BME280;24211;49.980;19.776;2023-03-31T08:32:37;98339.03;;;16.45;100.00
38939;BME280;24211;49.980;19.776;2023-03-31T08:35:06;98322.25;;;16.53;100.00
38939;BME280;24211;49.980;19.776;2023-03-31T08:37:36;98325.41;;;16.60;100.00
38939;BME280;24211;49.980;19.776;2023-03-31T08:40:05;98320.22;;;16.64;100.00
38939;BME280;24211;49.980;19.776;2023-03-31T08:42:40;98311.81;;;16.70;100.00
38939;BME280;24211;49.980;19.776;2023-03-31T08:45:29;98307.44;;;16.74;100.00
38939;BME280;24211;49.980;19.776;2023-03-31T08:48:26;98301.91;;;16.84;100.00
38939;BME280;24211;49.980;19.776;2023-03-31T08:51:22;98296.50;;;16.84;100.00
38939;BME280;24211;49.980;19.776;2023-03-31T08:54:04;98293.81;;;16.84;100.00
38939;BME280;24211;49.980;19.776;2023-03-31T08:56:35;98298.34;;;16.89;100.00
38939;BME280;24211;49.980;19.776;2023-03-31T08:59:17;98299.84;;;16.76;100.00
38939;BME280;24211;49.980;19.776;2023-03-31T09:05:08;98286.09;;;16.96;100.00
38939;BME280;24211;49.980;19.776;2023-03-31T09:08:03;98284.84;;;17.45;100.00
38939;BME280;24211;49.980;19.776;2023-03-31T09:16:53;98262.16;;;17.27;95.65
38939;BME280;24211;49.980;19.776;2023-03-31T09:22:33;98258.78;;;17.35;94.38
38939;BME280;24211;49.980;19.776;2023-03-31T09:25:22;98252.44;;;17.45;90.90
38939;BME280;24211;49.980;19.776;2023-03-31T09:27:56;98251.13;;;17.61;86.62
38939;BME280;24211;49.980;19.776;2023-03-31T09:30:31;98249.69;;;17.82;84.33
38939;BME280;24211;49.980;19.776;2023-03-31T09:33:28;98242.81;;;18.17;81.41
38939;BME280;24211;49.980;19.776;2023-03-31T09:35:59;98224.00;;;18.53;78.25
38939;BME280;24211;49.980;19.776;2023-03-31T09:38:28;98225.69;;;18.76;74.12
38939;BME280;24211;49.980;19.776;2023-03-31T09:40:59;98212.69;;;19.00;72.84
38939;BME280;24211;49.980;19.776;2023-03-31T09:43:30;98207.88;;;18.97;71.85
38939;BME280;24211;49.980;19.776;2023-03-31T09:46:03;98200.53;;;19.11;72.14
38939;BME280;24211;49.980;19.776;2023-03-31T09:48:44;98195.88;;;19.47;71.27
38939;BME280;24211;49.980;19.776;2023-03-31T09:51:26;98198.28;;;19.80;71.69
38939;BME280;24211;49.980;19.776;2023-03-31T09:54:08;98185.28;;;19.99;71.64
38939;BME280;24211;49.980;19.776;2023-03-31T09:59:18;98163.03;;;20.19;65.95
38939;BME280;24211;49.980;19.776;2023-03-31T10:01:51;98171.47;;;20.17;65.99
38939;BME280;24211;49.980;19.776;2023-03-31T10:04:26;98176.59;;;20.19;65.01
38939;BME280;24211;49.980;19.776;2023-03-31T10:06:55;98176.81;;;20.31;61.87
38939;BME280;24211;49.980;19.776;2023-03-31T10:09:29;98174.59;;;20.33;62.93
38939;BME280;24211;49.980;19.776;2023-03-31T10:12:08;98162.13;;;20.32;63.38
38939;BME280;24211;49.980;19.776;2023-03-31T10:14:49;98149.25;;;20.46;62.35
38939;BME280;24211;49.980;19.776;2023-03-31T10:17:26;98159.31;;;20.54;60.98
38939;BME280;24211;49.980;19.776;2023-03-31T10:19:58;98157.09;;;20.56;60.58
38939;BME280;24211;49.980;19.776;2023-03-31T10:22:30;98153.25;;;20.57;58.82
38939;BME280;24211;49.980;19.776;2023-03-31T10:25:27;98150.50;;;20.32;58.43
38939;BME280;24211;49.980;19.776;2023-03-31T10:27:55;98146.13;;;20.22;57.74
38939;BME280;24211;49.980;19.776;2023-03-31T10:30:31;98144.00;;;20.10;57.58
38939;BME280;24211;49.980;19.776;2023-03-31T10:33:17;98139.56;;;20.14;59.37
38939;BME280;24211;49.980;19.776;2023-03-31T10:35:58;98125.06;;;20.19;58.71
38939;BME280;24211;49.980;19.776;2023-03-31T10:38:35;98127.66;;;20.33;58.06
38939;BME280;24211;49.980;19.776;2023-03-31T10:41:03;98114.13;;;20.58;55.87
38939;BME280;24211;49.980;19.776;2023-03-31T10:43:47;98113.19;;;20.63;56.14
38939;BME280;24211;49.980;19.776;2023-03-31T10:46:16;98112.22;;;20.76;56.69
38939;BME280;24211;49.980;19.776;2023-03-31T10:48:44;98104.56;;;20.95;56.64
38939;BME280;24211;49.980;19.776;2023-03-31T10:51:20;98106.94;;;21.14;56.09
38939;BME280;24211;49.980;19.776;2023-03-31T10:53:51;98110.75;;;21.30;56.37
38939;BME280;24211;49.980;19.776;2023-03-31T11:14:43;98086.97;;;20.50;51.83
38939;BME280;24211;49.980;19.776;2023-03-31T11:26:04;98086.06;;;19.50;54.35
38939;BME280;24211;49.980;19.776;2023-03-31T11:29:09;98082.91;;;19.34;55.32
38939;BME280;24211;49.980;19.776;2023-03-31T11:32:19;98078.56;;;19.25;56.19
38939;BME280;24211;49.980;19.776;2023-03-31T11:35:06;98085.66;;;19.12;57.72
38939;BME280;24211;49.980;19.776;2023-03-31T11:43:44;98067.91;;;19.28;58.55
38939;BME280;24211;49.980;19.776;2023-03-31T11:46:43;98064.88;;;19.30;57.54
38939;BME280;24211;49.980;19.776;2023-03-31T11:49:22;98062.03;;;19.35;57.85
38939;BME280;24211;49.980;19.776;2023-03-31T11:52:02;98063.38;;;19.37;57.65
38939;BME280;24211;49.980;19.776;2023-03-31T11:54:38;98059.44;;;19.43;57.28
38939;BME280;24211;49.980;19.776;2023-03-31T11:57:28;98057.19;;;19.45;56.87
38939;BME280;24211;49.980;19.776;2023-03-31T12:00:11;98050.16;;;19.44;56.53
38939;BME280;24211;49.980;19.776;2023-03-31T12:05:48;98037.81;;;19.61;56.38
38939;BME280;24211;49.980;19.776;2023-03-31T12:08:41;98034.94;;;19.66;56.33
38939;BME280;24211;49.980;19.776;2023-03-31T12:11:23;98025.25;;;19.82;56.12
38939;BME280;24211;49.980;19.776;2023-03-31T12:16:46;98023.06;;;20.18;53.15
38939;BME280;24211;49.980;19.776;2023-03-31T12:19:38;98016.56;;;20.19;52.76
38939;BME280;24211;49.980;19.776;2023-03-31T12:24:39;98004.44;;;20.25;53.16
38939;BME280;24211;49.980;19.776;2023-03-31T12:27:24;97999.66;;;20.31;52.60
38939;BME280;24211;49.980;19.776;2023-03-31T12:30:03;97999.34;;;20.32;52.99
38939;BME280;24211;49.980;19.776;2023-03-31T12:32:38;97988.47;;;20.32;53.07
38939;BME280;24211;49.980;19.776;2023-03-31T12:44:07;97963.25;;;20.40;51.96
38939;BME280;24211;49.980;19.776;2023-03-31T12:49:46;97958.50;;;21.09;50.29
38939;BME280;24211;49.980;19.776;2023-03-31T12:55:32;97949.47;;;21.55;47.69
38939;BME280;24211;49.980;19.776;2023-03-31T13:01:08;97934.25;;;21.33;46.84
38939;BME280;24211;49.980;19.776;2023-03-31T13:04:16;97925.34;;;21.24;47.27
38939;BME280;24211;49.980;19.776;2023-03-31T13:06:52;97917.78;;;21.01;47.87
38939;BME280;24211;49.980;19.776;2023-03-31T13:11:57;97919.13;;;20.77;48.25
38939;BME280;24211;49.980;19.776;2023-03-31T13:14:38;97914.97;;;20.71;49.41
38939;BME280;24211;49.980;19.776;2023-03-31T13:17:36;97903.66;;;20.69;50.10
38939;BME280;24211;49.980;19.776;2023-03-31T13:23:21;97893.41;;;20.75;50.33
38939;BME280;24211;49.980;19.776;2023-03-31T13:25:57;97895.78;;;20.76;50.06
38939;BME280;24211;49.980;19.776;2023-03-31T13:28:39;97888.78;;;20.75;49.96
38939;BME280;24211;49.980;19.776;2023-03-31T13:31:11;97884.81;;;20.73;49.85
38939;BME280;24211;49.980;19.776;2023-03-31T13:34:00;97875.09;;;20.63;49.28
38939;BME280;24211;49.980;19.776;2023-03-31T13:39:27;97871.66;;;20.37;48.59
38939;BME280;24211;49.980;19.776;2023-03-31T13:43:00;97862.41;;;20.21;49.95
38939;BME280;24211;49.980;19.776;2023-03-31T13:46:12;97870.91;;;20.02;50.33
38939;BME280;24211;49.980;19.776;2023-03-31T13:51:57;97868.81;;;19.74;50.47
38939;BME280;24211;49.980;19.776;2023-03-31T14:03:28;97856.03;;;19.48;48.59
38939;BME280;24211;49.980;19.776;2023-03-31T14:06:24;97846.13;;;19.35;47.15
38939;BME280;24211;49.980;19.776;2023-03-31T14:09:03;97847.38;;;19.29;46.46
38939;BME280;24211;49.980;19.776;2023-03-31T14:11:32;97857.25;;;19.25;46.72
38939;BME280;24211;49.980;19.776;2023-03-31T14:16:39;97840.34;;;19.11;47.20
38939;BME280;24211;49.980;19.776;2023-03-31T14:31:06;97855.50;;;18.42;49.70
38939;BME280;24211;49.980;19.776;2023-03-31T14:37:15;97854.59;;;18.24;51.03
38939;BME280;24211;49.980;19.776;2023-03-31T14:39:51;97850.06;;;18.11;51.44
38939;BME280;24211;49.980;19.776;2023-03-31T14:42:29;97846.03;;;18.00;52.00
38939;BME280;24211;49.980;19.776;2023-03-31T14:45:19;97833.94;;;17.98;52.53
38939;BME280;24211;49.980;19.776;2023-03-31T14:48:13;97843.44;;;17.95;53.61
38939;BME280;24211;49.980;19.776;2023-03-31T14:50:45;97837.31;;;17.81;53.80
38939;BME280;24211;49.980;19.776;2023-03-31T14:53:14;97832.31;;;17.75;54.34
38939;BME280;24211;49.980;19.776;2023-03-31T14:55:44;97824.03;;;17.71;55.17
38939;BME280;24211;49.980;19.776;2023-03-31T14:58:36;97829.09;;;17.64;55.43
38939;BME280;24211;49.980;19.776;2023-03-31T15:01:07;97808.69;;;17.58;55.99
38939;BME280;24211;49.980;19.776;2023-03-31T15:03:39;97797.88;;;17.58;56.48
38939;BME280;24211;49.980;19.776;2023-03-31T15:06:09;97799.16;;;17.60;57.00
38939;BME280;24211;49.980;19.776;2023-03-31T15:08:37;97794.06;;;17.59;57.82
38939;BME280;24211;49.980;19.776;2023-03-31T15:11:09;97786.09;;;17.54;58.01
38939;BME280;24211;49.980;19.776;2023-03-31T15:13:47;97783.69;;;17.52;58.86
38939;BME280;24211;49.980;19.776;2023-03-31T15:16:44;97774.88;;;17.47;59.00
38939;BME280;24211;49.980;19.776;2023-03-31T15:19:20;97777.72;;;17.42;60.20
38939;BME280;24211;49.980;19.776;2023-03-31T15:22:11;97769.72;;;17.37;60.57
38939;BME280;24211;49.980;19.776;2023-03-31T15:24:40;97773.53;;;17.36;62.27
38939;BME280;24211;49.980;19.776;2023-03-31T15:27:34;97769.72;;;17.37;63.21
38939;BME280;24211;49.980;19.776;2023-03-31T15:30:13;97764.31;;;17.37;63.78
38939;BME280;24211;49.980;19.776;2023-03-31T15:32:43;97763.53;;;17.36;65.79
38939;BME280;24211;49.980;19.776;2023-03-31T15:35:20;97763.31;;;17.33;66.88
38939;BME280;24211;49.980;19.776;2023-03-31T15:37:51;97756.34;;;17.32;66.79
38939;BME280;24211;49.980;19.776;2023-03-31T15:40:23;97749.13;;;17.27;68.53
38939;BME280;24211;49.980;19.776;2023-03-31T15:42:57;97748.34;;;17.27;68.84
38939;BME280;24211;49.980;19.776;2023-03-31T15:45:37;97739.78;;;17.25;72.50
38939;BME280;24211;49.980;19.776;2023-03-31T15:48:37;97747.34;;;17.23;74.20
38939;BME280;24211;49.980;19.776;2023-03-31T15:51:27;97732.56;;;17.20;74.63
38939;BME280;24211;49.980;19.776;2023-03-31T15:53:56;97728.56;;;17.18;76.59